createdAt,value
2019-01-24T00:03:23.623Z,-1.46
2019-01-24T00:05:53.328Z,-1.54
2019-01-24T00:08:23.412Z,-1.52
2019-01-24T00:19:25.492Z,-1.53
2019-01-24T00:21:55.223Z,-1.47
2019-01-24T00:27:13.580Z,-1.49
2019-01-24T00:32:58.217Z,-1.67
2019-01-24T00:36:07.206Z,-1.58
2019-01-24T00:38:36.818Z,-1.46
2019-01-24T00:41:06.615Z,-1.49
2019-01-24T00:44:15.480Z,-1.47
2019-01-24T00:49:54.814Z,-1.28
2019-01-24T00:52:24.788Z,-1.31
2019-01-24T00:55:13.515Z,-1.28
2019-01-24T01:01:00.289Z,-1.32
2019-01-24T01:03:30.125Z,-1.45
2019-01-24T01:06:38.909Z,-1.39
2019-01-24T01:15:16.073Z,-1.38
2019-01-24T01:17:46.373Z,-1.42
2019-01-24T01:20:18.172Z,-1.46
2019-01-24T01:22:47.870Z,-1.50
2019-01-24T01:25:17.857Z,-1.42
2019-01-24T01:27:47.656Z,-1.38
2019-01-24T01:30:20.059Z,-1.35
2019-01-24T01:32:50.031Z,-1.38
2019-01-24T01:35:20.046Z,-1.35
2019-01-24T01:37:49.914Z,-1.42
2019-01-24T01:40:20.005Z,-1.45
2019-01-24T01:42:50.024Z,-1.47
2019-01-24T01:45:21.513Z,-1.63
2019-01-24T01:47:51.388Z,-1.57
2019-01-24T01:50:22.884Z,-1.46
2019-01-24T01:52:52.997Z,-1.49
2019-01-24T01:55:22.788Z,-1.46
2019-01-24T01:57:52.390Z,-1.41
2019-01-24T02:00:23.923Z,-1.49
2019-01-24T02:02:53.754Z,-1.45
2019-01-24T02:05:24.451Z,-1.36
2019-01-24T02:07:54.416Z,-1.27
2019-01-24T02:10:25.087Z,-1.37
2019-01-24T02:12:54.969Z,-1.40
2019-01-24T02:15:25.116Z,-1.40
2019-01-24T02:17:54.987Z,-1.38
2019-01-24T02:20:25.084Z,-1.39
2019-01-24T02:22:55.107Z,-1.37
2019-01-24T02:25:24.817Z,-1.36
2019-01-24T02:27:54.900Z,-1.47
2019-01-24T02:30:26.622Z,-1.51
2019-01-24T02:32:56.445Z,-1.64
2019-01-24T02:35:26.235Z,-1.67
2019-01-24T02:37:56.272Z,-1.67
2019-01-24T02:40:26.011Z,-1.72
2019-01-24T02:42:56.173Z,-1.77
2019-01-24T02:45:26.655Z,-1.78
2019-01-24T02:47:56.524Z,-1.80
2019-01-24T02:50:26.254Z,-1.82
2019-01-24T02:52:56.256Z,-1.80
2019-01-24T02:55:25.905Z,-1.71
2019-01-24T02:57:55.718Z,-1.68
2019-01-24T03:00:25.503Z,-1.64
2019-01-24T03:02:55.155Z,-1.75
2019-01-24T03:05:26.355Z,-1.75
2019-01-24T03:07:56.244Z,-1.70
2019-01-24T03:10:26.191Z,-1.79
2019-01-24T03:12:56.085Z,-1.83
2019-01-24T03:15:25.998Z,-1.88
2019-01-24T03:17:55.847Z,-1.79
2019-01-24T03:20:25.586Z,-1.83
2019-01-24T03:22:55.452Z,-1.90
2019-01-24T03:25:25.163Z,-1.81
2019-01-24T03:27:54.984Z,-1.81
2019-01-24T03:30:25.129Z,-1.76
2019-01-24T03:32:55.092Z,-1.79
2019-01-24T03:35:26.791Z,-1.79
2019-01-24T03:37:56.503Z,-1.76
2019-01-24T03:40:26.293Z,-1.76
2019-01-24T03:42:59.150Z,-1.77
2019-01-24T03:45:29.018Z,-1.76
2019-01-24T03:47:58.919Z,-1.73
2019-01-24T03:50:28.734Z,-1.76
2019-01-24T03:52:58.468Z,-1.90
2019-01-24T03:55:29.204Z,-1.86
2019-01-24T03:57:58.832Z,-1.83
2019-01-24T04:00:28.587Z,-1.80
2019-01-24T04:02:58.494Z,-1.79
2019-01-24T04:05:28.304Z,-1.78
2019-01-24T04:07:58.249Z,-1.72
2019-01-24T04:10:28.324Z,-1.74
2019-01-24T04:12:58.277Z,-1.76
2019-01-24T04:15:28.710Z,-1.74
2019-01-24T04:17:58.602Z,-1.74
2019-01-24T04:20:28.492Z,-1.87
2019-01-24T04:22:58.651Z,-1.86
2019-01-24T04:25:28.430Z,-1.86
2019-01-24T04:27:58.246Z,-1.81
2019-01-24T04:30:28.144Z,-1.78
2019-01-24T04:32:58.216Z,-1.72
2019-01-24T04:35:28.124Z,-1.70
2019-01-24T04:37:58.349Z,-1.63
2019-01-24T04:40:28.168Z,-1.59
2019-01-24T04:42:58.327Z,-1.59
2019-01-24T04:45:28.239Z,-1.63
2019-01-24T04:47:58.811Z,-1.64
2019-01-24T04:50:28.574Z,-1.65
2019-01-24T04:52:58.504Z,-1.71
2019-01-24T04:55:28.412Z,-1.62
2019-01-24T04:57:58.387Z,-1.65
2019-01-24T05:00:30.213Z,-1.62
2019-01-24T05:03:00.175Z,-1.55
2019-01-24T05:05:30.225Z,-1.58
2019-01-24T05:08:00.455Z,-1.56
2019-01-24T05:10:30.174Z,-1.54
2019-01-24T05:13:00.291Z,-1.55
2019-01-24T05:15:30.344Z,-1.48
2019-01-24T05:18:00.435Z,-1.51
2019-01-24T05:20:30.190Z,-1.46
2019-01-24T05:23:00.260Z,-1.40
2019-01-24T05:25:30.055Z,-1.36
2019-01-24T05:28:00.168Z,-1.34
2019-01-24T05:30:30.985Z,-1.23
2019-01-24T05:33:00.688Z,-1.26
2019-01-24T05:35:34.712Z,-1.26
2019-01-24T05:38:03.234Z,-1.32
2019-01-24T05:40:33.211Z,-1.37
2019-01-24T05:43:03.492Z,-1.37
2019-01-24T05:45:33.288Z,-1.44
2019-01-24T05:48:03.302Z,-1.43
2019-01-24T05:50:33.453Z,-1.35
2019-01-24T05:53:03.411Z,-1.28
2019-01-24T05:55:33.155Z,-1.25
2019-01-24T05:58:02.714Z,-1.17
2019-01-24T06:00:37.387Z,-1.17
2019-01-24T06:03:07.382Z,-1.22
2019-01-24T06:05:41.708Z,-1.16
2019-01-24T06:08:09.280Z,-1.16
2019-01-24T06:10:39.456Z,-1.10
2019-01-24T06:13:09.338Z,-1.05
2019-01-24T06:15:39.422Z,-1.16
2019-01-24T06:18:09.298Z,-1.22
2019-01-24T06:20:39.136Z,-1.22
2019-01-24T06:23:11.148Z,-1.12
2019-01-24T06:25:41.192Z,-1.07
2019-01-24T06:28:11.096Z,-1.02
2019-01-24T06:30:41.018Z,-1.09
2019-01-24T06:33:10.864Z,-1.11
2019-01-24T06:35:40.787Z,-1.08
2019-01-24T06:38:10.765Z,-1.10
2019-01-24T06:40:41.780Z,-1.00
2019-01-24T06:43:11.611Z,-1.19
2019-01-24T06:45:41.653Z,-1.22
2019-01-24T06:48:11.621Z,-1.22
2019-01-24T06:50:41.309Z,-1.19
2019-01-24T06:53:11.209Z,-1.10
2019-01-24T06:55:40.898Z,-1.07
2019-01-24T06:58:10.682Z,-0.99
2019-01-24T07:00:40.589Z,-0.92
2019-01-24T07:03:10.301Z,-0.86
2019-01-24T07:05:40.201Z,-0.84
2019-01-24T07:08:09.833Z,-0.79
2019-01-24T07:10:40.225Z,-0.88
2019-01-24T07:13:09.983Z,-0.97
2019-01-24T07:15:40.614Z,-0.99
2019-01-24T07:18:10.425Z,-1.05
2019-01-24T07:20:40.083Z,-1.06
2019-01-24T07:23:09.783Z,-1.07
2019-01-24T07:25:39.359Z,-1.08
2019-01-24T07:28:09.665Z,-1.12
2019-01-24T07:30:39.678Z,-1.07
2019-01-24T07:33:09.602Z,-1.05
2019-01-24T07:35:39.372Z,-1.05
2019-01-24T07:38:09.243Z,-0.98
2019-01-24T07:40:38.865Z,-1.00
2019-01-24T07:43:08.683Z,-0.95
2019-01-24T07:45:41.004Z,-0.95
2019-01-24T07:48:11.173Z,-0.94
2019-01-24T07:50:41.489Z,-0.90
2019-01-24T07:53:11.555Z,-0.90
2019-01-24T07:55:41.142Z,-0.85
2019-01-24T07:58:10.958Z,-0.87
2019-01-24T08:00:41.026Z,-0.89
2019-01-24T08:03:10.593Z,-0.91
2019-01-24T08:05:40.547Z,-0.88
2019-01-24T08:08:10.697Z,-0.95
2019-01-24T08:10:40.479Z,-0.88
2019-01-24T08:13:10.205Z,-0.79
2019-01-24T08:15:40.072Z,-0.86
2019-01-24T08:18:09.888Z,-0.95
2019-01-24T08:20:40.885Z,-0.89
2019-01-24T08:23:10.607Z,-0.88
2019-01-24T08:25:40.483Z,-0.79
2019-01-24T08:28:10.424Z,-0.80
2019-01-24T08:30:40.025Z,-0.92
2019-01-24T08:33:09.660Z,-0.85
2019-01-24T08:35:39.579Z,-0.80
2019-01-24T08:38:09.324Z,-0.78
2019-01-24T08:40:38.970Z,-0.80
2019-01-24T08:43:10.682Z,-0.74
2019-01-24T08:45:40.232Z,-0.66
2019-01-24T08:48:09.897Z,-0.72
2019-01-24T08:50:39.735Z,-0.62
2019-01-24T08:53:09.581Z,-0.58
2019-01-24T08:55:43.487Z,-0.52
2019-01-24T08:58:13.281Z,-0.55
2019-01-24T09:00:43.096Z,-0.62
2019-01-24T09:03:13.268Z,-0.56
2019-01-24T09:05:42.938Z,-0.50
2019-01-24T09:08:12.799Z,-0.49
2019-01-24T09:10:42.773Z,-0.45
2019-01-24T09:13:12.555Z,-0.48
2019-01-24T09:15:42.222Z,-0.50
2019-01-24T09:18:12.310Z,-0.50
2019-01-24T09:20:42.133Z,-0.44
2019-01-24T09:23:11.982Z,-0.47
2019-01-24T09:25:41.714Z,-0.43
2019-01-24T09:28:15.027Z,-0.35
2019-01-24T09:30:42.884Z,-0.36
2019-01-24T09:33:12.791Z,-0.38
2019-01-24T09:35:42.580Z,-0.17
2019-01-24T09:38:12.344Z,-0.13
2019-01-24T09:40:42.075Z,-0.10
2019-01-24T09:43:11.865Z,-0.10
2019-01-24T09:45:41.583Z,-0.20
2019-01-24T09:48:11.783Z,-0.19
2019-01-24T09:50:41.484Z,-0.21
2019-01-24T09:53:11.091Z,-0.31
2019-01-24T09:55:40.923Z,-0.30
2019-01-24T09:58:10.678Z,-0.27
2019-01-24T10:00:40.627Z,-0.32
2019-01-24T10:03:10.327Z,-0.28
2019-01-24T10:05:39.937Z,-0.21
2019-01-24T10:08:09.621Z,-0.26
2019-01-24T10:10:39.537Z,-0.19
2019-01-24T10:13:09.230Z,-0.20
2019-01-24T10:15:38.989Z,-0.24
2019-01-24T10:18:08.557Z,-0.22
2019-01-24T10:20:38.487Z,-0.21
2019-01-24T10:23:08.237Z,-0.13
2019-01-24T10:25:39.210Z,-0.09
2019-01-24T10:28:09.435Z,-0.07
2019-01-24T10:30:43.153Z,-0.09
2019-01-24T10:33:10.688Z,-0.10
2019-01-24T10:35:40.409Z,-0.11
2019-01-24T10:38:10.144Z,-0.16
2019-01-24T10:40:39.880Z,-0.19
2019-01-24T10:43:10.353Z,-0.17
2019-01-24T10:45:40.033Z,-0.09
2019-01-24T10:48:09.906Z,-0.03
2019-01-24T10:50:40.648Z,0.02
2019-01-24T10:53:10.527Z,0.02
2019-01-24T10:55:40.160Z,0.02
2019-01-24T10:58:09.744Z,-0.05
2019-01-24T11:00:43.554Z,-0.03
2019-01-24T11:03:15.490Z,0.08
2019-01-24T11:05:45.240Z,0.00
2019-01-24T11:08:15.114Z,0.07
2019-01-24T11:10:44.924Z,0.07
2019-01-24T11:13:14.788Z,0.11
2019-01-24T11:15:44.525Z,0.15
2019-01-24T11:18:14.436Z,0.21
2019-01-24T11:20:44.582Z,0.33
2019-01-24T11:23:14.575Z,0.36
2019-01-24T11:25:44.216Z,0.28
2019-01-24T11:28:14.059Z,0.34
2019-01-24T11:30:43.642Z,0.37
2019-01-24T11:33:13.206Z,0.34
2019-01-24T11:35:42.931Z,0.29
2019-01-24T11:38:12.527Z,0.18
2019-01-24T11:40:42.032Z,0.19
2019-01-24T11:43:11.686Z,0.30
2019-01-24T11:45:43.178Z,0.39
2019-01-24T11:48:12.920Z,0.36
2019-01-24T11:50:42.552Z,0.34
2019-01-24T11:53:12.087Z,0.28
2019-01-24T11:55:41.761Z,0.38
2019-01-24T11:58:11.444Z,0.42
2019-01-24T12:00:53.530Z,0.45
2019-01-24T12:03:23.183Z,0.41
2019-01-24T12:05:52.919Z,0.29
2019-01-24T12:08:22.602Z,0.23
2019-01-24T12:10:52.254Z,0.33
2019-01-24T12:13:21.869Z,0.35
2019-01-24T12:15:51.552Z,0.44
2019-01-24T12:18:21.189Z,0.46
2019-01-24T12:20:50.940Z,0.50
2019-01-24T12:23:20.459Z,0.50
2019-01-24T12:25:50.101Z,0.54
2019-01-24T12:28:19.659Z,0.53
2019-01-24T12:30:49.675Z,0.59
2019-01-24T12:33:19.374Z,0.64
2019-01-24T12:35:49.176Z,0.63
2019-01-24T12:38:18.688Z,0.57
2019-01-24T12:40:48.473Z,0.48
2019-01-24T12:43:18.333Z,0.52
2019-01-24T12:45:47.917Z,0.57
2019-01-24T12:48:17.519Z,0.52
2019-01-24T12:50:47.190Z,0.58
2019-01-24T12:53:16.987Z,0.64
2019-01-24T12:55:46.578Z,0.62
2019-01-24T12:58:17.223Z,0.63
2019-01-24T13:00:46.989Z,0.64
2019-01-24T13:03:16.692Z,0.56
2019-01-24T13:05:46.378Z,0.61
2019-01-24T13:08:15.983Z,0.59
2019-01-24T13:10:45.727Z,0.61
2019-01-24T13:13:15.345Z,0.70
2019-01-24T13:15:44.947Z,0.74
2019-01-24T13:18:14.636Z,0.68
2019-01-24T13:20:44.309Z,0.63
2019-01-24T13:23:14.162Z,0.65
2019-01-24T13:25:44.003Z,0.58
2019-01-24T13:28:13.596Z,0.64
2019-01-24T13:30:43.211Z,0.58
2019-01-24T13:33:12.797Z,0.63
2019-01-24T13:35:42.417Z,0.63
2019-01-24T13:38:12.041Z,0.74
2019-01-24T13:40:41.696Z,0.55
2019-01-24T13:43:11.303Z,0.68
2019-01-24T13:45:41.273Z,0.75
2019-01-24T13:48:11.068Z,0.79
2019-01-24T13:50:40.718Z,0.73
2019-01-24T13:53:10.675Z,0.75
2019-01-24T13:55:40.321Z,0.76
2019-01-24T13:58:10.193Z,0.76
2019-01-24T14:00:41.370Z,0.74
2019-01-24T14:03:26.210Z,0.72
2019-01-24T14:05:56.285Z,0.62
2019-01-24T14:08:25.912Z,0.56
2019-01-24T14:10:55.514Z,0.50
2019-01-24T14:13:25.299Z,0.44
2019-01-24T14:15:55.162Z,0.40
2019-01-24T14:18:25.583Z,0.41
2019-01-24T14:20:55.415Z,0.42
2019-01-24T14:23:25.150Z,0.46
2019-01-24T14:25:55.052Z,0.49
2019-01-24T14:28:24.864Z,0.49
2019-01-24T14:30:54.715Z,0.59
2019-01-24T14:33:24.347Z,0.59
2019-01-24T14:35:53.949Z,0.50
2019-01-24T14:38:23.545Z,0.52
2019-01-24T14:40:53.233Z,0.48
2019-01-24T14:43:22.817Z,0.49
2019-01-24T14:45:52.482Z,0.52
2019-01-24T14:48:22.300Z,0.47
2019-01-24T14:50:51.904Z,0.45
2019-01-24T14:53:21.685Z,0.53
2019-01-24T14:55:51.445Z,0.63
2019-01-24T14:58:21.193Z,0.70
2019-01-24T15:01:07.764Z,0.68
2019-01-24T15:03:39.067Z,0.59
2019-01-24T15:06:08.606Z,0.55
2019-01-24T15:08:38.407Z,0.54
2019-01-24T15:11:08.146Z,0.43
2019-01-24T15:13:37.763Z,0.43
2019-01-24T15:16:07.924Z,0.39
2019-01-24T15:18:37.732Z,0.42
2019-01-24T15:21:07.338Z,0.38
2019-01-24T15:23:37.985Z,0.34
2019-01-24T15:26:07.597Z,0.32
2019-01-24T15:28:37.426Z,0.33
2019-01-24T15:31:07.330Z,0.24
2019-01-24T15:33:37.064Z,0.24
2019-01-24T15:36:12.623Z,0.28
2019-01-24T15:38:42.153Z,0.27
2019-01-24T15:41:12.796Z,0.23
2019-01-24T15:43:42.603Z,0.33
2019-01-24T15:46:12.254Z,0.38
2019-01-24T15:48:42.864Z,0.44
2019-01-24T15:51:13.065Z,0.46
2019-01-24T15:53:42.984Z,0.46
2019-01-24T15:56:12.726Z,0.47
2019-01-24T15:58:42.477Z,0.43
2019-01-24T16:01:12.422Z,0.34
2019-01-24T16:03:42.203Z,0.31
2019-01-24T16:06:11.896Z,0.42
2019-01-24T16:08:41.669Z,0.38
2019-01-24T16:11:11.928Z,0.39
2019-01-24T16:13:41.791Z,0.34
2019-01-24T16:16:11.692Z,0.39
2019-01-24T16:18:41.673Z,0.41
2019-01-24T16:21:11.472Z,0.39
2019-01-24T16:23:41.680Z,0.50
2019-01-24T16:26:11.743Z,0.49
2019-01-24T16:28:41.557Z,0.40
2019-01-24T16:31:11.192Z,0.43
2019-01-24T16:33:43.940Z,0.44
2019-01-24T16:36:13.652Z,0.46
2019-01-24T16:38:43.390Z,0.40
2019-01-24T16:41:13.871Z,0.36
2019-01-24T16:43:44.271Z,0.41
2019-01-24T16:46:16.438Z,0.50
2019-01-24T16:48:46.306Z,0.57
2019-01-24T16:51:16.378Z,0.56
2019-01-24T16:53:46.279Z,0.55
2019-01-24T16:56:16.071Z,0.58
2019-01-24T16:58:45.907Z,0.60
2019-01-24T17:01:20.766Z,0.56
2019-01-24T17:03:51.140Z,0.63
2019-01-24T17:06:21.034Z,0.65
2019-01-24T17:08:51.493Z,0.69
2019-01-24T17:11:21.647Z,0.59
2019-01-24T17:13:51.582Z,0.66
2019-01-24T17:16:21.250Z,0.60
2019-01-24T17:18:50.972Z,0.66
2019-01-24T17:21:20.865Z,0.62
2019-01-24T17:23:50.718Z,0.58
2019-01-24T17:26:20.471Z,0.59
2019-01-24T17:28:50.206Z,0.62
2019-01-24T17:31:20.167Z,0.60
2019-01-24T17:33:49.838Z,0.55
2019-01-24T17:36:19.650Z,0.60
2019-01-24T17:38:49.256Z,0.64
2019-01-24T17:41:19.008Z,0.60
2019-01-24T17:43:48.661Z,0.53
2019-01-24T17:46:18.417Z,0.58
2019-01-24T17:48:48.940Z,0.53
2019-01-24T17:51:19.379Z,0.52
2019-01-24T17:53:49.466Z,0.58
2019-01-24T17:56:21.531Z,0.48
2019-01-24T17:58:53.237Z,0.45
2019-01-24T18:01:23.217Z,0.41
2019-01-24T18:03:55.172Z,0.35
2019-01-24T18:06:26.588Z,0.28
2019-01-24T18:08:57.093Z,0.33
2019-01-24T18:11:27.583Z,0.35
2019-01-24T18:13:57.964Z,0.36
2019-01-24T18:16:27.998Z,0.39
2019-01-24T18:18:59.023Z,0.36
2019-01-24T18:21:30.249Z,0.35
2019-01-24T18:24:00.086Z,0.32
2019-01-24T18:26:30.465Z,0.26
2019-01-24T18:29:00.209Z,0.30
2019-01-24T18:31:30.048Z,0.32
2019-01-24T18:33:59.874Z,0.33
2019-01-24T18:36:29.816Z,0.30
2019-01-24T18:38:59.507Z,0.35
2019-01-24T18:41:29.388Z,0.30
2019-01-24T18:43:59.051Z,0.30
2019-01-24T18:46:28.778Z,0.37
2019-01-24T18:48:58.548Z,0.48
2019-01-24T18:51:28.525Z,0.46
2019-01-24T18:53:58.734Z,0.37
2019-01-24T18:56:28.442Z,0.39
2019-01-24T18:58:58.569Z,0.41
2019-01-24T19:01:28.986Z,0.41
2019-01-24T19:03:58.649Z,0.47
2019-01-24T19:06:29.883Z,0.48
2019-01-24T19:08:59.705Z,0.44
2019-01-24T19:11:29.315Z,0.44
2019-01-24T19:13:58.897Z,0.37
2019-01-24T19:16:29.009Z,0.33
2019-01-24T19:18:58.676Z,0.33
2019-01-24T19:21:28.725Z,0.33
2019-01-24T19:23:58.543Z,0.29
2019-01-24T19:26:28.622Z,0.29
2019-01-24T19:28:58.332Z,0.30
2019-01-24T19:31:28.174Z,0.31
2019-01-24T19:33:58.189Z,0.31
2019-01-24T19:36:28.281Z,0.31
2019-01-24T19:38:58.199Z,0.34
2019-01-24T19:41:28.188Z,0.41
2019-01-24T19:43:58.099Z,0.38
2019-01-24T19:46:28.861Z,0.45
2019-01-24T19:48:58.533Z,0.46
2019-01-24T19:51:28.569Z,0.45
2019-01-24T19:53:58.504Z,0.48
2019-01-24T19:56:28.413Z,0.41
2019-01-24T19:58:58.354Z,0.38
2019-01-24T20:01:28.565Z,0.33
2019-01-24T20:03:58.715Z,0.31
2019-01-24T20:06:28.899Z,0.46
2019-01-24T20:09:00.239Z,0.49
2019-01-24T20:11:30.476Z,0.43
2019-01-24T20:14:00.339Z,0.36
2019-01-24T20:16:30.259Z,0.35
2019-01-24T20:19:00.166Z,0.44
2019-01-24T20:21:33.392Z,0.39
2019-01-24T20:24:04.150Z,0.39
2019-01-24T20:26:34.043Z,0.41
2019-01-24T20:29:04.120Z,0.38
2019-01-24T20:31:33.809Z,0.31
2019-01-24T20:34:03.601Z,0.35
2019-01-24T20:36:33.612Z,0.33
2019-01-24T20:39:07.521Z,0.34
2019-01-24T20:41:35.199Z,0.41
2019-01-24T20:44:05.197Z,0.39
2019-01-24T20:46:35.377Z,0.37
2019-01-24T20:49:05.179Z,0.45
2019-01-24T20:51:34.943Z,0.41
2019-01-24T20:54:05.328Z,0.44
2019-01-24T20:56:35.049Z,0.49
2019-01-24T20:59:04.819Z,0.53
2019-01-24T21:01:34.741Z,0.50
2019-01-24T21:04:04.590Z,0.50
2019-01-24T21:06:34.494Z,0.45
2019-01-24T21:09:06.077Z,0.45
2019-01-24T21:11:35.891Z,0.44
2019-01-24T21:14:06.088Z,0.44
2019-01-24T21:16:35.801Z,0.48
2019-01-24T21:19:05.815Z,0.51
2019-01-24T21:21:35.499Z,0.47
2019-01-24T21:24:05.739Z,0.45
2019-01-24T21:26:35.643Z,0.57
2019-01-24T21:29:06.834Z,0.57
2019-01-24T21:31:37.377Z,0.57
2019-01-24T21:34:07.317Z,0.59
2019-01-24T21:36:36.923Z,0.61
2019-01-24T21:39:09.323Z,0.55
2019-01-24T21:41:39.201Z,0.60
2019-01-24T21:44:10.516Z,0.62
2019-01-24T21:46:40.138Z,0.66
2019-01-24T21:49:09.962Z,0.69
2019-01-24T21:51:39.785Z,0.72
2019-01-24T21:54:09.865Z,0.63
2019-01-24T21:56:39.540Z,0.63
2019-01-24T21:59:09.257Z,0.59
2019-01-24T22:01:38.840Z,0.57
2019-01-24T22:04:08.432Z,0.61
2019-01-24T22:06:38.524Z,0.59
2019-01-24T22:09:10.169Z,0.58
2019-01-24T22:11:39.904Z,0.59
2019-01-24T22:14:09.943Z,0.56
2019-01-24T22:16:39.581Z,0.60
2019-01-24T22:19:09.175Z,0.64
2019-01-24T22:21:38.931Z,0.69
2019-01-24T22:24:08.850Z,0.71
2019-01-24T22:26:38.458Z,0.66
2019-01-24T22:29:08.268Z,0.72
2019-01-24T22:31:39.137Z,0.68
2019-01-24T22:34:08.940Z,0.77
2019-01-24T22:36:38.536Z,0.80
2019-01-24T22:39:10.474Z,0.79
2019-01-24T22:41:40.168Z,0.82
2019-01-24T22:44:10.380Z,0.85
2019-01-24T22:46:40.223Z,0.92
2019-01-24T22:49:10.260Z,0.92
2019-01-24T22:51:40.419Z,0.95
2019-01-24T22:54:10.534Z,0.98
2019-01-24T22:56:40.104Z,0.95
2019-01-24T22:59:09.953Z,0.91
2019-01-24T23:02:10.037Z,0.92
2019-01-24T23:04:39.837Z,0.96
2019-01-24T23:07:09.787Z,0.93
2019-01-24T23:09:44.060Z,0.86
2019-01-24T23:12:11.305Z,0.90
2019-01-24T23:14:40.891Z,0.81
2019-01-24T23:17:10.663Z,0.71
2019-01-24T23:19:40.339Z,0.69
2019-01-24T23:22:10.151Z,0.70
2019-01-24T23:24:40.103Z,0.64
2019-01-24T23:27:09.876Z,0.68
2019-01-24T23:29:39.737Z,0.63
2019-01-24T23:32:09.352Z,0.72
2019-01-24T23:34:39.082Z,0.78
2019-01-24T23:37:08.995Z,0.84
2019-01-24T23:39:38.840Z,0.93
2019-01-24T23:42:08.669Z,0.88
2019-01-24T23:44:38.508Z,0.81
2019-01-24T23:47:08.294Z,0.73
2019-01-24T23:49:37.916Z,0.75
2019-01-24T23:52:07.639Z,0.67
2019-01-24T23:54:37.388Z,0.58
2019-01-24T23:57:07.512Z,0.50
2019-01-24T23:59:37.177Z,0.41
